Terminal Aerodrome Forecast
Issued by NWS

Home | Current Version | Previous Version | Text Only | Print | Product List | Glossary On
Versions: 1 2 3 4 5 6 7 8 9 10 11 12 13 14 15 16 17
000
FTUS43 KICT 280520
TAFHUT
TAF
KHUT 280520Z 2806/2906 17017G22KT P6SM OVC300 WS020/19045KT
     FM281400 19022G30KT P6SM SCT150
     FM281800 19022G30KT P6SM SCT050 SCT150=

USA.gov is the U.S. government's official web portal to all federal, state and local government web resources and services.